sensor_id;sensor_type;location;lat;lon;timestamp;P1;durP1;ratioP1;P2;durP2;ratioP2
42704;SDS011;28342;42.594;23.414;2022-10-16T00:00:21;9.15;;;5.20;;
42704;SDS011;28342;42.594;23.414;2022-10-16T00:02:46;8.73;;;4.75;;
42704;SDS011;28342;42.594;23.414;2022-10-16T00:05:11;8.20;;;4.60;;
42704;SDS011;28342;42.594;23.414;2022-10-16T00:07:37;10.93;;;5.18;;
42704;SDS011;28342;42.594;23.414;2022-10-16T00:10:02;10.35;;;5.00;;
42704;SDS011;28342;42.594;23.414;2022-10-16T00:12:28;7.75;;;4.88;;
42704;SDS011;28342;42.594;23.414;2022-10-16T00:14:53;9.38;;;5.30;;
42704;SDS011;28342;42.594;23.414;2022-10-16T00:17:18;8.07;;;4.40;;
42704;SDS011;28342;42.594;23.414;2022-10-16T00:19:44;6.32;;;4.30;;
42704;SDS011;28342;42.594;23.414;2022-10-16T00:22:09;7.90;;;4.43;;
42704;SDS011;28342;42.594;23.414;2022-10-16T00:24:36;6.30;;;4.50;;
42704;SDS011;28342;42.594;23.414;2022-10-16T00:27:01;8.32;;;5.13;;
42704;SDS011;28342;42.594;23.414;2022-10-16T00:29:27;8.07;;;4.50;;
42704;SDS011;28342;42.594;23.414;2022-10-16T00:31:52;11.13;;;5.05;;
42704;SDS011;28342;42.594;23.414;2022-10-16T00:34:17;9.68;;;4.78;;
42704;SDS011;28342;42.594;23.414;2022-10-16T00:36:43;8.23;;;5.50;;
42704;SDS011;28342;42.594;23.414;2022-10-16T00:39:08;8.77;;;5.82;;
42704;SDS011;28342;42.594;23.414;2022-10-16T00:41:34;9.40;;;5.47;;
42704;SDS011;28342;42.594;23.414;2022-10-16T00:44:00;9.45;;;5.43;;
42704;SDS011;28342;42.594;23.414;2022-10-16T00:46:38;10.30;;;5.30;;
42704;SDS011;28342;42.594;23.414;2022-10-16T00:49:09;7.85;;;4.53;;
42704;SDS011;28342;42.594;23.414;2022-10-16T00:51:40;6.47;;;4.78;;
42704;SDS011;28342;42.594;23.414;2022-10-16T00:54:18;8.23;;;4.88;;
42704;SDS011;28342;42.594;23.414;2022-10-16T00:56:46;10.15;;;5.40;;
42704;SDS011;28342;42.594;23.414;2022-10-16T01:02:05;13.63;;;6.18;;
42704;SDS011;28342;42.594;23.414;2022-10-16T01:04:39;12.50;;;6.25;;
42704;SDS011;28342;42.594;23.414;2022-10-16T01:07:14;10.00;;;6.95;;
42704;SDS011;28342;42.594;23.414;2022-10-16T01:12:58;7.97;;;6.03;;
42704;SDS011;28342;42.594;23.414;2022-10-16T01:15:41;9.05;;;5.78;;
42704;SDS011;28342;42.594;23.414;2022-10-16T01:21:16;12.27;;;5.60;;
42704;SDS011;28342;42.594;23.414;2022-10-16T01:24:06;10.95;;;6.28;;
42704;SDS011;28342;42.594;23.414;2022-10-16T01:29:28;15.93;;;6.85;;
42704;SDS011;28342;42.594;23.414;2022-10-16T01:32:00;10.90;;;6.13;;
42704;SDS011;28342;42.594;23.414;2022-10-16T01:34:33;10.65;;;5.80;;
42704;SDS011;28342;42.594;23.414;2022-10-16T01:37:07;8.07;;;5.65;;
42704;SDS011;28342;42.594;23.414;2022-10-16T01:39:37;8.52;;;5.60;;
42704;SDS011;28342;42.594;23.414;2022-10-16T01:42:13;8.20;;;5.90;;
42704;SDS011;28342;42.594;23.414;2022-10-16T01:44:44;8.70;;;6.07;;
42704;SDS011;28342;42.594;23.414;2022-10-16T01:47:12;9.52;;;5.57;;
42704;SDS011;28342;42.594;23.414;2022-10-16T01:49:38;10.60;;;5.95;;
42704;SDS011;28342;42.594;23.414;2022-10-16T01:52:06;9.50;;;5.45;;
42704;SDS011;28342;42.594;23.414;2022-10-16T01:54:36;9.82;;;6.10;;
42704;SDS011;28342;42.594;23.414;2022-10-16T01:57:05;9.13;;;6.10;;
42704;SDS011;28342;42.594;23.414;2022-10-16T01:59:33;9.38;;;6.95;;
42704;SDS011;28342;42.594;23.414;2022-10-16T02:02:04;11.02;;;5.82;;
42704;SDS011;28342;42.594;23.414;2022-10-16T02:04:35;11.40;;;6.88;;
42704;SDS011;28342;42.594;23.414;2022-10-16T02:07:03;9.88;;;6.70;;
42704;SDS011;28342;42.594;23.414;2022-10-16T02:09:30;8.90;;;6.38;;
42704;SDS011;28342;42.594;23.414;2022-10-16T02:11:58;13.60;;;6.57;;
42704;SDS011;28342;42.594;23.414;2022-10-16T02:14:28;12.77;;;6.30;;
42704;SDS011;28342;42.594;23.414;2022-10-16T02:16:54;8.60;;;6.25;;
42704;SDS011;28342;42.594;23.414;2022-10-16T02:19:19;9.02;;;6.30;;
42704;SDS011;28342;42.594;23.414;2022-10-16T02:21:51;10.63;;;6.57;;
42704;SDS011;28342;42.594;23.414;2022-10-16T02:27:13;8.70;;;6.22;;
42704;SDS011;28342;42.594;23.414;2022-10-16T02:29:47;9.40;;;6.57;;
42704;SDS011;28342;42.594;23.414;2022-10-16T02:32:19;9.82;;;6.88;;
42704;SDS011;28342;42.594;23.414;2022-10-16T02:34:48;10.55;;;7.03;;
42704;SDS011;28342;42.594;23.414;2022-10-16T02:37:16;11.88;;;7.57;;
42704;SDS011;28342;42.594;23.414;2022-10-16T02:39:43;10.68;;;7.25;;
42704;SDS011;28342;42.594;23.414;2022-10-16T02:42:12;10.07;;;7.55;;
42704;SDS011;28342;42.594;23.414;2022-10-16T02:44:38;12.73;;;9.10;;
42704;SDS011;28342;42.594;23.414;2022-10-16T02:47:05;12.50;;;7.82;;
42704;SDS011;28342;42.594;23.414;2022-10-16T02:49:30;10.40;;;6.95;;
42704;SDS011;28342;42.594;23.414;2022-10-16T02:51:55;12.55;;;7.70;;
42704;SDS011;28342;42.594;23.414;2022-10-16T02:54:21;12.30;;;7.13;;
42704;SDS011;28342;42.594;23.414;2022-10-16T02:56:46;11.48;;;7.85;;
42704;SDS011;28342;42.594;23.414;2022-10-16T02:59:12;13.40;;;7.53;;
42704;SDS011;28342;42.594;23.414;2022-10-16T03:01:37;13.30;;;7.72;;
42704;SDS011;28342;42.594;23.414;2022-10-16T03:04:03;12.80;;;7.85;;
42704;SDS011;28342;42.594;23.414;2022-10-16T03:06:28;12.10;;;7.93;;
42704;SDS011;28342;42.594;23.414;2022-10-16T03:08:54;11.77;;;8.07;;
42704;SDS011;28342;42.594;23.414;2022-10-16T03:11:19;11.55;;;7.88;;
42704;SDS011;28342;42.594;23.414;2022-10-16T03:13:44;10.60;;;7.93;;
42704;SDS011;28342;42.594;23.414;2022-10-16T03:16:10;15.77;;;8.20;;
42704;SDS011;28342;42.594;23.414;2022-10-16T03:18:35;13.10;;;8.40;;
42704;SDS011;28342;42.594;23.414;2022-10-16T03:21:01;15.93;;;9.25;;
42704;SDS011;28342;42.594;23.414;2022-10-16T03:23:26;16.65;;;8.93;;
42704;SDS011;28342;42.594;23.414;2022-10-16T03:25:51;13.40;;;8.63;;
42704;SDS011;28342;42.594;23.414;2022-10-16T03:28:17;18.02;;;8.95;;
42704;SDS011;28342;42.594;23.414;2022-10-16T03:30:43;11.35;;;8.27;;
42704;SDS011;28342;42.594;23.414;2022-10-16T03:33:08;12.18;;;8.48;;
42704;SDS011;28342;42.594;23.414;2022-10-16T03:35:34;14.73;;;8.15;;
42704;SDS011;28342;42.594;23.414;2022-10-16T03:37:59;11.80;;;7.80;;
42704;SDS011;28342;42.594;23.414;2022-10-16T03:40:25;12.00;;;8.88;;
42704;SDS011;28342;42.594;23.414;2022-10-16T03:42:50;13.27;;;8.48;;
42704;SDS011;28342;42.594;23.414;2022-10-16T03:45:16;14.88;;;9.50;;
42704;SDS011;28342;42.594;23.414;2022-10-16T03:47:42;12.45;;;8.27;;
42704;SDS011;28342;42.594;23.414;2022-10-16T03:50:08;10.88;;;8.55;;
42704;SDS011;28342;42.594;23.414;2022-10-16T03:52:33;12.40;;;8.82;;
42704;SDS011;28342;42.594;23.414;2022-10-16T03:54:59;12.38;;;8.35;;
42704;SDS011;28342;42.594;23.414;2022-10-16T03:57:24;11.73;;;8.27;;
42704;SDS011;28342;42.594;23.414;2022-10-16T03:59:50;19.35;;;8.82;;
42704;SDS011;28342;42.594;23.414;2022-10-16T04:02:15;15.45;;;9.00;;
42704;SDS011;28342;42.594;23.414;2022-10-16T04:04:41;18.40;;;10.10;;
42704;SDS011;28342;42.594;23.414;2022-10-16T04:07:06;21.98;;;10.55;;
42704;SDS011;28342;42.594;23.414;2022-10-16T04:09:32;14.48;;;8.63;;
42704;SDS011;28342;42.594;23.414;2022-10-16T04:11:57;15.45;;;8.80;;
42704;SDS011;28342;42.594;23.414;2022-10-16T04:14:23;13.55;;;9.27;;
42704;SDS011;28342;42.594;23.414;2022-10-16T04:16:48;20.23;;;11.77;;
42704;SDS011;28342;42.594;23.414;2022-10-16T04:19:13;13.77;;;9.07;;
42704;SDS011;28342;42.594;23.414;2022-10-16T04:21:39;16.20;;;9.40;;
42704;SDS011;28342;42.594;23.414;2022-10-16T04:24:04;11.48;;;7.97;;
42704;SDS011;28342;42.594;23.414;2022-10-16T04:26:30;13.50;;;8.38;;
42704;SDS011;28342;42.594;23.414;2022-10-16T04:28:55;15.30;;;9.00;;
42704;SDS011;28342;42.594;23.414;2022-10-16T04:31:20;12.02;;;8.07;;
42704;SDS011;28342;42.594;23.414;2022-10-16T04:33:46;12.00;;;8.40;;
42704;SDS011;28342;42.594;23.414;2022-10-16T04:36:11;12.20;;;8.50;;
42704;SDS011;28342;42.594;23.414;2022-10-16T04:38:37;12.40;;;7.93;;
42704;SDS011;28342;42.594;23.414;2022-10-16T04:41:04;12.88;;;8.45;;
42704;SDS011;28342;42.594;23.414;2022-10-16T04:43:30;10.90;;;8.30;;
42704;SDS011;28342;42.594;23.414;2022-10-16T04:45:55;12.55;;;8.35;;
42704;SDS011;28342;42.594;23.414;2022-10-16T04:48:21;12.82;;;9.13;;
42704;SDS011;28342;42.594;23.414;2022-10-16T04:50:47;14.13;;;8.85;;
42704;SDS011;28342;42.594;23.414;2022-10-16T04:53:12;15.95;;;8.48;;
42704;SDS011;28342;42.594;23.414;2022-10-16T04:55:38;17.63;;;8.68;;
42704;SDS011;28342;42.594;23.414;2022-10-16T04:58:03;14.60;;;8.25;;
42704;SDS011;28342;42.594;23.414;2022-10-16T05:00:29;14.40;;;8.90;;
42704;SDS011;28342;42.594;23.414;2022-10-16T05:02:55;11.00;;;8.40;;
42704;SDS011;28342;42.594;23.414;2022-10-16T05:05:20;15.23;;;8.68;;
42704;SDS011;28342;42.594;23.414;2022-10-16T05:07:46;14.18;;;8.63;;
42704;SDS011;28342;42.594;23.414;2022-10-16T05:10:12;15.93;;;8.50;;
42704;SDS011;28342;42.594;23.414;2022-10-16T05:12:38;12.13;;;8.30;;
42704;SDS011;28342;42.594;23.414;2022-10-16T05:15:03;13.93;;;9.55;;
42704;SDS011;28342;42.594;23.414;2022-10-16T05:17:29;12.10;;;8.30;;
42704;SDS011;28342;42.594;23.414;2022-10-16T05:19:54;15.52;;;8.05;;
42704;SDS011;28342;42.594;23.414;2022-10-16T05:22:20;12.10;;;8.38;;
42704;SDS011;28342;42.594;23.414;2022-10-16T05:24:45;11.85;;;7.82;;
42704;SDS011;28342;42.594;23.414;2022-10-16T05:27:11;12.75;;;8.38;;
42704;SDS011;28342;42.594;23.414;2022-10-16T05:29:43;12.02;;;8.63;;
42704;SDS011;28342;42.594;23.414;2022-10-16T05:32:24;12.55;;;7.85;;
42704;SDS011;28342;42.594;23.414;2022-10-16T05:35:04;9.88;;;6.75;;
42704;SDS011;28342;42.594;23.414;2022-10-16T05:37:50;10.22;;;7.18;;
42704;SDS011;28342;42.594;23.414;2022-10-16T05:40:25;13.40;;;7.85;;
42704;SDS011;28342;42.594;23.414;2022-10-16T05:42:54;11.13;;;8.10;;
42704;SDS011;28342;42.594;23.414;2022-10-16T05:45:20;12.93;;;8.80;;
42704;SDS011;28342;42.594;23.414;2022-10-16T05:47:45;14.02;;;8.00;;
42704;SDS011;28342;42.594;23.414;2022-10-16T05:50:10;12.68;;;8.05;;
42704;SDS011;28342;42.594;23.414;2022-10-16T05:52:36;11.57;;;7.78;;
42704;SDS011;28342;42.594;23.414;2022-10-16T05:55:01;11.57;;;8.23;;
42704;SDS011;28342;42.594;23.414;2022-10-16T05:57:27;12.02;;;8.23;;
42704;SDS011;28342;42.594;23.414;2022-10-16T05:59:52;11.65;;;8.35;;
42704;SDS011;28342;42.594;23.414;2022-10-16T06:02:18;11.77;;;7.82;;
42704;SDS011;28342;42.594;23.414;2022-10-16T06:04:45;9.90;;;7.88;;
42704;SDS011;28342;42.594;23.414;2022-10-16T06:07:11;10.70;;;7.60;;
42704;SDS011;28342;42.594;23.414;2022-10-16T06:09:36;11.30;;;8.15;;
42704;SDS011;28342;42.594;23.414;2022-10-16T06:12:02;10.20;;;7.72;;
42704;SDS011;28342;42.594;23.414;2022-10-16T06:14:27;12.10;;;8.05;;
42704;SDS011;28342;42.594;23.414;2022-10-16T06:16:53;15.55;;;7.22;;
42704;SDS011;28342;42.594;23.414;2022-10-16T06:19:18;11.75;;;7.47;;
42704;SDS011;28342;42.594;23.414;2022-10-16T06:21:44;9.07;;;6.97;;
42704;SDS011;28342;42.594;23.414;2022-10-16T06:24:10;10.30;;;7.47;;
42704;SDS011;28342;42.594;23.414;2022-10-16T06:26:35;10.20;;;6.88;;
42704;SDS011;28342;42.594;23.414;2022-10-16T06:29:02;10.18;;;7.25;;
42704;SDS011;28342;42.594;23.414;2022-10-16T06:31:27;13.88;;;7.32;;
42704;SDS011;28342;42.594;23.414;2022-10-16T06:33:55;10.80;;;7.10;;
42704;SDS011;28342;42.594;23.414;2022-10-16T06:36:24;11.23;;;6.72;;
42704;SDS011;28342;42.594;23.414;2022-10-16T06:38:51;11.27;;;7.72;;
42704;SDS011;28342;42.594;23.414;2022-10-16T06:41:18;10.73;;;7.53;;
42704;SDS011;28342;42.594;23.414;2022-10-16T06:43:45;10.48;;;7.20;;
42704;SDS011;28342;42.594;23.414;2022-10-16T06:46:13;9.07;;;6.78;;
42704;SDS011;28342;42.594;23.414;2022-10-16T06:48:39;9.30;;;6.88;;
42704;SDS011;28342;42.594;23.414;2022-10-16T06:51:06;13.63;;;6.90;;
42704;SDS011;28342;42.594;23.414;2022-10-16T06:53:32;11.02;;;7.50;;
42704;SDS011;28342;42.594;23.414;2022-10-16T06:56:12;13.60;;;6.60;;
42704;SDS011;28342;42.594;23.414;2022-10-16T06:58:40;9.30;;;6.45;;
42704;SDS011;28342;42.594;23.414;2022-10-16T07:01:06;9.35;;;6.95;;
42704;SDS011;28342;42.594;23.414;2022-10-16T07:03:32;11.38;;;7.90;;
42704;SDS011;28342;42.594;23.414;2022-10-16T07:06:04;8.32;;;6.60;;
42704;SDS011;28342;42.594;23.414;2022-10-16T07:08:32;10.80;;;7.50;;
42704;SDS011;28342;42.594;23.414;2022-10-16T07:11:02;10.07;;;7.03;;
42704;SDS011;28342;42.594;23.414;2022-10-16T07:13:30;7.97;;;6.68;;
42704;SDS011;28342;42.594;23.414;2022-10-16T07:15:57;9.10;;;7.28;;
42704;SDS011;28342;42.594;23.414;2022-10-16T07:18:23;9.63;;;7.13;;
42704;SDS011;28342;42.594;23.414;2022-10-16T07:20:51;9.77;;;6.93;;
42704;SDS011;28342;42.594;23.414;2022-10-16T07:23:17;8.95;;;7.07;;
42704;SDS011;28342;42.594;23.414;2022-10-16T07:25:42;12.30;;;6.88;;
42704;SDS011;28342;42.594;23.414;2022-10-16T07:28:08;11.63;;;6.45;;
42704;SDS011;28342;42.594;23.414;2022-10-16T07:30:34;9.85;;;6.70;;
42704;SDS011;28342;42.594;23.414;2022-10-16T07:33:02;11.50;;;7.15;;
42704;SDS011;28342;42.594;23.414;2022-10-16T07:35:27;8.50;;;7.07;;
42704;SDS011;28342;42.594;23.414;2022-10-16T07:37:53;10.40;;;7.30;;
42704;SDS011;28342;42.594;23.414;2022-10-16T07:40:18;11.73;;;7.30;;
42704;SDS011;28342;42.594;23.414;2022-10-16T07:42:43;8.57;;;6.78;;
42704;SDS011;28342;42.594;23.414;2022-10-16T07:45:09;9.27;;;6.97;;
42704;SDS011;28342;42.594;23.414;2022-10-16T07:47:35;9.07;;;7.00;;
42704;SDS011;28342;42.594;23.414;2022-10-16T07:50:00;9.18;;;6.82;;
42704;SDS011;28342;42.594;23.414;2022-10-16T07:52:25;8.30;;;6.47;;
42704;SDS011;28342;42.594;23.414;2022-10-16T07:54:51;8.20;;;6.28;;
42704;SDS011;28342;42.594;23.414;2022-10-16T07:57:16;9.30;;;5.82;;
42704;SDS011;28342;42.594;23.414;2022-10-16T07:59:44;9.27;;;5.80;;
42704;SDS011;28342;42.594;23.414;2022-10-16T08:02:11;11.38;;;6.38;;
42704;SDS011;28342;42.594;23.414;2022-10-16T08:04:36;8.93;;;5.75;;
42704;SDS011;28342;42.594;23.414;2022-10-16T08:07:01;8.02;;;5.68;;
42704;SDS011;28342;42.594;23.414;2022-10-16T08:09:27;7.53;;;5.30;;
42704;SDS011;28342;42.594;23.414;2022-10-16T08:11:52;8.93;;;5.90;;
42704;SDS011;28342;42.594;23.414;2022-10-16T08:14:18;8.05;;;5.82;;
42704;SDS011;28342;42.594;23.414;2022-10-16T08:16:43;9.30;;;6.13;;
42704;SDS011;28342;42.594;23.414;2022-10-16T08:19:08;8.80;;;5.68;;
42704;SDS011;28342;42.594;23.414;2022-10-16T08:21:34;9.85;;;5.88;;
42704;SDS011;28342;42.594;23.414;2022-10-16T08:23:59;11.77;;;6.28;;
42704;SDS011;28342;42.594;23.414;2022-10-16T08:26:25;11.95;;;6.07;;
42704;SDS011;28342;42.594;23.414;2022-10-16T08:28:51;9.15;;;6.53;;
42704;SDS011;28342;42.594;23.414;2022-10-16T08:31:17;11.32;;;6.07;;
42704;SDS011;28342;42.594;23.414;2022-10-16T08:33:43;8.60;;;5.85;;
42704;SDS011;28342;42.594;23.414;2022-10-16T08:36:11;10.80;;;6.30;;
42704;SDS011;28342;42.594;23.414;2022-10-16T08:38:37;10.10;;;6.38;;
42704;SDS011;28342;42.594;23.414;2022-10-16T08:49:40;10.63;;;5.88;;
42704;SDS011;28342;42.594;23.414;2022-10-16T08:52:16;10.02;;;5.25;;
42704;SDS011;28342;42.594;23.414;2022-10-16T08:54:42;8.73;;;4.70;;
42704;SDS011;28342;42.594;23.414;2022-10-16T08:57:21;9.70;;;5.25;;
42704;SDS011;28342;42.594;23.414;2022-10-16T08:59:49;5.57;;;4.18;;
42704;SDS011;28342;42.594;23.414;2022-10-16T09:02:37;7.53;;;4.30;;
42704;SDS011;28342;42.594;23.414;2022-10-16T09:05:24;6.78;;;4.40;;
42704;SDS011;28342;42.594;23.414;2022-10-16T09:10:54;8.73;;;4.72;;
42704;SDS011;28342;42.594;23.414;2022-10-16T09:15:55;6.97;;;4.30;;
42704;SDS011;28342;42.594;23.414;2022-10-16T09:18:35;5.22;;;4.22;;
42704;SDS011;28342;42.594;23.414;2022-10-16T09:23:43;7.82;;;3.85;;
42704;SDS011;28342;42.594;23.414;2022-10-16T09:26:10;6.25;;;3.72;;
42704;SDS011;28342;42.594;23.414;2022-10-16T09:28:37;31.52;;;28.48;;
42704;SDS011;28342;42.594;23.414;2022-10-16T09:31:03;7.07;;;5.88;;
42704;SDS011;28342;42.594;23.414;2022-10-16T09:33:29;11.55;;;4.05;;
42704;SDS011;28342;42.594;23.414;2022-10-16T09:36:00;7.53;;;3.42;;
42704;SDS011;28342;42.594;23.414;2022-10-16T09:38:29;6.13;;;3.50;;
42704;SDS011;28342;42.594;23.414;2022-10-16T09:40:59;5.03;;;3.63;;
42704;SDS011;28342;42.594;23.414;2022-10-16T09:46:02;6.80;;;3.50;;
42704;SDS011;28342;42.594;23.414;2022-10-16T09:48:39;6.13;;;3.65;;
42704;SDS011;28342;42.594;23.414;2022-10-16T09:51:18;9.20;;;3.85;;
42704;SDS011;28342;42.594;23.414;2022-10-16T09:53:49;6.85;;;4.95;;
42704;SDS011;28342;42.594;23.414;2022-10-16T09:56:21;7.93;;;5.25;;
42704;SDS011;28342;42.594;23.414;2022-10-16T09:58:49;10.50;;;5.70;;
42704;SDS011;28342;42.594;23.414;2022-10-16T10:01:19;23.45;;;13.73;;
42704;SDS011;28342;42.594;23.414;2022-10-16T10:03:46;11.15;;;9.25;;
42704;SDS011;28342;42.594;23.414;2022-10-16T10:06:17;7.97;;;6.82;;
42704;SDS011;28342;42.594;23.414;2022-10-16T10:08:54;27.10;;;15.90;;
42704;SDS011;28342;42.594;23.414;2022-10-16T10:14:23;10.20;;;4.38;;
42704;SDS011;28342;42.594;23.414;2022-10-16T10:16:50;6.18;;;4.05;;
42704;SDS011;28342;42.594;23.414;2022-10-16T10:19:18;5.68;;;3.83;;
42704;SDS011;28342;42.594;23.414;2022-10-16T10:21:46;6.75;;;4.43;;
42704;SDS011;28342;42.594;23.414;2022-10-16T10:24:12;5.05;;;3.78;;
42704;SDS011;28342;42.594;23.414;2022-10-16T10:26:41;6.28;;;4.00;;
42704;SDS011;28342;42.594;23.414;2022-10-16T10:32:10;6.03;;;4.22;;
42704;SDS011;28342;42.594;23.414;2022-10-16T10:35:04;5.95;;;4.07;;
42704;SDS011;28342;42.594;23.414;2022-10-16T10:43:12;6.07;;;4.03;;
42704;SDS011;28342;42.594;23.414;2022-10-16T10:45:50;8.68;;;4.40;;
42704;SDS011;28342;42.594;23.414;2022-10-16T10:48:27;5.43;;;3.70;;
42704;SDS011;28342;42.594;23.414;2022-10-16T10:51:22;6.20;;;4.07;;
42704;SDS011;28342;42.594;23.414;2022-10-16T10:54:11;10.15;;;4.43;;
42704;SDS011;28342;42.594;23.414;2022-10-16T10:56:49;8.85;;;4.47;;
42704;SDS011;28342;42.594;23.414;2022-10-16T11:04:56;6.85;;;3.85;;
42704;SDS011;28342;42.594;23.414;2022-10-16T11:07:52;6.13;;;3.80;;
42704;SDS011;28342;42.594;23.414;2022-10-16T11:10:24;5.22;;;3.97;;
42704;SDS011;28342;42.594;23.414;2022-10-16T11:12:58;6.60;;;3.88;;
42704;SDS011;28342;42.594;23.414;2022-10-16T11:15:36;6.25;;;4.00;;
42704;SDS011;28342;42.594;23.414;2022-10-16T11:18:06;6.28;;;3.75;;
42704;SDS011;28342;42.594;23.414;2022-10-16T11:20:40;4.32;;;3.60;;
42704;SDS011;28342;42.594;23.414;2022-10-16T11:23:14;4.60;;;3.38;;
42704;SDS011;28342;42.594;23.414;2022-10-16T11:25:45;6.70;;;3.83;;
42704;SDS011;28342;42.594;23.414;2022-10-16T11:28:17;5.55;;;3.92;;
42704;SDS011;28342;42.594;23.414;2022-10-16T11:33:46;3.10;;;2.75;;
42704;SDS011;28342;42.594;23.414;2022-10-16T11:36:26;5.25;;;3.13;;
42704;SDS011;28342;42.594;23.414;2022-10-16T11:41:37;3.97;;;2.92;;
42704;SDS011;28342;42.594;23.414;2022-10-16T11:46:40;4.93;;;3.85;;
42704;SDS011;28342;42.594;23.414;2022-10-16T11:49:13;5.30;;;3.38;;
42704;SDS011;28342;42.594;23.414;2022-10-16T11:51:43;3.40;;;2.55;;
42704;SDS011;28342;42.594;23.414;2022-10-16T11:54:19;3.33;;;2.05;;
42704;SDS011;28342;42.594;23.414;2022-10-16T11:56:50;3.22;;;2.33;;
42704;SDS011;28342;42.594;23.414;2022-10-16T11:59:22;4.85;;;2.58;;
42704;SDS011;28342;42.594;23.414;2022-10-16T12:01:59;2.38;;;1.90;;
42704;SDS011;28342;42.594;23.414;2022-10-16T12:09:34;7.25;;;2.30;;
42704;SDS011;28342;42.594;23.414;2022-10-16T12:12:03;2.88;;;2.38;;
42704;SDS011;28342;42.594;23.414;2022-10-16T12:17:03;3.53;;;1.90;;
42704;SDS011;28342;42.594;23.414;2022-10-16T12:19:56;4.43;;;1.92;;
42704;SDS011;28342;42.594;23.414;2022-10-16T12:22:27;3.00;;;1.90;;
42704;SDS011;28342;42.594;23.414;2022-10-16T12:24:55;2.92;;;1.80;;
42704;SDS011;28342;42.594;23.414;2022-10-16T12:27:24;4.30;;;1.80;;
42704;SDS011;28342;42.594;23.414;2022-10-16T12:29:54;2.35;;;1.83;;
42704;SDS011;28342;42.594;23.414;2022-10-16T12:32:43;2.70;;;2.10;;
42704;SDS011;28342;42.594;23.414;2022-10-16T12:35:27;3.75;;;2.05;;
42704;SDS011;28342;42.594;23.414;2022-10-16T12:38:04;3.83;;;2.30;;
42704;SDS011;28342;42.594;23.414;2022-10-16T12:40:32;3.42;;;2.25;;
42704;SDS011;28342;42.594;23.414;2022-10-16T12:43:11;3.88;;;1.98;;
42704;SDS011;28342;42.594;23.414;2022-10-16T12:45:48;2.53;;;2.17;;
42704;SDS011;28342;42.594;23.414;2022-10-16T12:48:44;4.50;;;2.25;;
42704;SDS011;28342;42.594;23.414;2022-10-16T12:54:01;3.50;;;2.33;;
42704;SDS011;28342;42.594;23.414;2022-10-16T12:59:24;2.67;;;1.92;;
42704;SDS011;28342;42.594;23.414;2022-10-16T13:07:37;4.78;;;2.25;;
42704;SDS011;28342;42.594;23.414;2022-10-16T13:10:36;4.55;;;2.60;;
42704;SDS011;28342;42.594;23.414;2022-10-16T13:23:54;3.67;;;2.13;;
42704;SDS011;28342;42.594;23.414;2022-10-16T13:26:44;3.30;;;2.30;;
42704;SDS011;28342;42.594;23.414;2022-10-16T13:29:18;4.72;;;1.92;;
42704;SDS011;28342;42.594;23.414;2022-10-16T13:31:44;3.85;;;2.08;;
42704;SDS011;28342;42.594;23.414;2022-10-16T13:34:14;5.88;;;2.58;;
42704;SDS011;28342;42.594;23.414;2022-10-16T13:36:44;5.72;;;2.22;;
42704;SDS011;28342;42.594;23.414;2022-10-16T13:39:13;4.30;;;2.65;;
42704;SDS011;28342;42.594;23.414;2022-10-16T13:41:39;6.55;;;2.00;;
42704;SDS011;28342;42.594;23.414;2022-10-16T13:44:05;4.50;;;2.08;;
42704;SDS011;28342;42.594;23.414;2022-10-16T13:46:42;6.63;;;2.67;;
42704;SDS011;28342;42.594;23.414;2022-10-16T13:49:14;3.88;;;2.13;;
42704;SDS011;28342;42.594;23.414;2022-10-16T13:51:41;6.50;;;2.83;;
42704;SDS011;28342;42.594;23.414;2022-10-16T13:54:18;3.88;;;2.15;;
42704;SDS011;28342;42.594;23.414;2022-10-16T13:56:43;3.72;;;2.50;;
42704;SDS011;28342;42.594;23.414;2022-10-16T14:02:00;4.65;;;2.15;;
42704;SDS011;28342;42.594;23.414;2022-10-16T14:04:39;4.18;;;2.45;;
42704;SDS011;28342;42.594;23.414;2022-10-16T14:07:05;3.28;;;1.95;;
42704;SDS011;28342;42.594;23.414;2022-10-16T14:09:38;4.57;;;2.30;;
42704;SDS011;28342;42.594;23.414;2022-10-16T14:12:08;3.25;;;2.33;;
42704;SDS011;28342;42.594;23.414;2022-10-16T14:14:43;2.83;;;2.10;;
42704;SDS011;28342;42.594;23.414;2022-10-16T14:19:55;5.50;;;2.42;;
42704;SDS011;28342;42.594;23.414;2022-10-16T14:24:51;3.65;;;2.00;;
42704;SDS011;28342;42.594;23.414;2022-10-16T14:27:23;3.03;;;2.33;;
42704;SDS011;28342;42.594;23.414;2022-10-16T14:32:40;2.75;;;2.45;;
42704;SDS011;28342;42.594;23.414;2022-10-16T14:35:21;3.72;;;2.40;;
42704;SDS011;28342;42.594;23.414;2022-10-16T14:37:53;3.70;;;1.92;;
42704;SDS011;28342;42.594;23.414;2022-10-16T14:40:20;5.50;;;2.38;;
42704;SDS011;28342;42.594;23.414;2022-10-16T14:42:48;5.05;;;2.58;;
42704;SDS011;28342;42.594;23.414;2022-10-16T14:45:15;7.05;;;2.33;;
42704;SDS011;28342;42.594;23.414;2022-10-16T14:47:49;5.35;;;3.17;;
42704;SDS011;28342;42.594;23.414;2022-10-16T14:50:17;3.75;;;2.47;;
42704;SDS011;28342;42.594;23.414;2022-10-16T14:52:42;3.35;;;2.17;;
42704;SDS011;28342;42.594;23.414;2022-10-16T14:55:09;5.15;;;2.65;;
42704;SDS011;28342;42.594;23.414;2022-10-16T14:57:35;8.00;;;2.70;;
42704;SDS011;28342;42.594;23.414;2022-10-16T15:00:03;3.03;;;2.40;;
42704;SDS011;28342;42.594;23.414;2022-10-16T15:02:34;4.80;;;2.65;;
42704;SDS011;28342;42.594;23.414;2022-10-16T15:05:12;5.97;;;2.67;;
42704;SDS011;28342;42.594;23.414;2022-10-16T15:07:39;6.07;;;2.63;;
42704;SDS011;28342;42.594;23.414;2022-10-16T15:10:04;3.42;;;2.72;;
42704;SDS011;28342;42.594;23.414;2022-10-16T15:12:30;6.93;;;3.00;;
42704;SDS011;28342;42.594;23.414;2022-10-16T15:14:55;7.65;;;2.55;;
42704;SDS011;28342;42.594;23.414;2022-10-16T15:17:21;4.10;;;2.55;;
42704;SDS011;28342;42.594;23.414;2022-10-16T15:19:49;4.75;;;2.55;;
42704;SDS011;28342;42.594;23.414;2022-10-16T15:22:16;6.00;;;3.50;;
42704;SDS011;28342;42.594;23.414;2022-10-16T15:24:42;13.55;;;6.70;;
42704;SDS011;28342;42.594;23.414;2022-10-16T15:27:07;9.32;;;4.18;;
42704;SDS011;28342;42.594;23.414;2022-10-16T15:29:33;10.27;;;6.20;;
42704;SDS011;28342;42.594;23.414;2022-10-16T15:31:58;60.28;;;23.85;;
42704;SDS011;28342;42.594;23.414;2022-10-16T15:34:23;33.90;;;15.15;;
42704;SDS011;28342;42.594;23.414;2022-10-16T15:36:49;37.92;;;18.95;;
42704;SDS011;28342;42.594;23.414;2022-10-16T15:39:16;28.48;;;15.30;;
42704;SDS011;28342;42.594;23.414;2022-10-16T15:41:45;12.73;;;7.32;;
42704;SDS011;28342;42.594;23.414;2022-10-16T15:44:16;22.25;;;6.57;;
42704;SDS011;28342;42.594;23.414;2022-10-16T15:46:42;13.68;;;5.95;;
42704;SDS011;28342;42.594;23.414;2022-10-16T15:49:07;8.25;;;5.00;;
42704;SDS011;28342;42.594;23.414;2022-10-16T15:51:34;13.80;;;6.28;;
42704;SDS011;28342;42.594;23.414;2022-10-16T15:54:03;9.98;;;6.45;;
42704;SDS011;28342;42.594;23.414;2022-10-16T15:56:28;13.40;;;6.78;;
42704;SDS011;28342;42.594;23.414;2022-10-16T15:58:55;11.52;;;6.85;;
42704;SDS011;28342;42.594;23.414;2022-10-16T16:01:22;13.23;;;7.65;;
42704;SDS011;28342;42.594;23.414;2022-10-16T16:03:47;12.25;;;8.75;;
42704;SDS011;28342;42.594;23.414;2022-10-16T16:06:13;19.33;;;10.80;;
42704;SDS011;28342;42.594;23.414;2022-10-16T16:08:39;14.30;;;8.70;;
42704;SDS011;28342;42.594;23.414;2022-10-16T16:11:09;14.07;;;8.50;;
42704;SDS011;28342;42.594;23.414;2022-10-16T16:13:36;19.77;;;11.07;;
42704;SDS011;28342;42.594;23.414;2022-10-16T16:16:08;34.00;;;16.48;;
42704;SDS011;28342;42.594;23.414;2022-10-16T16:18:35;53.03;;;25.73;;